sensor_id;sensor_type;location;lat;lon;timestamp;pressure;altitude;pressure_sealevel;temperature;humidity
19672;BME280;9983;51.114;13.788;2022-08-19T00:04:40;98538.16;;;23.99;92.96
19672;BME280;9983;51.114;13.788;2022-08-19T00:09:40;98549.34;;;24.03;93.14
19672;BME280;9983;51.114;13.788;2022-08-19T00:14:41;98536.66;;;23.78;95.23
19672;BME280;9983;51.114;13.788;2022-08-19T00:19:41;98533.13;;;23.72;96.36
19672;BME280;9983;51.114;13.788;2022-08-19T00:24:41;98549.41;;;23.38;98.17
19672;BME280;9983;51.114;13.788;2022-08-19T00:29:43;98559.81;;;23.36;98.06
19672;BME280;9983;51.114;13.788;2022-08-19T00:34:43;98574.00;;;23.43;99.62
19672;BME280;9983;51.114;13.788;2022-08-19T00:39:44;98563.63;;;23.51;98.92
19672;BME280;9983;51.114;13.788;2022-08-19T00:44:44;98579.41;;;23.64;98.82
19672;BME280;9983;51.114;13.788;2022-08-19T00:49:48;98577.81;;;23.53;99.14
19672;BME280;9983;51.114;13.788;2022-08-19T00:54:51;98563.31;;;23.57;99.84
19672;BME280;9983;51.114;13.788;2022-08-19T00:59:54;98562.00;;;23.50;100.00
19672;BME280;9983;51.114;13.788;2022-08-19T01:04:55;98559.91;;;23.16;100.00
19672;BME280;9983;51.114;13.788;2022-08-19T01:09:56;98558.81;;;23.17;100.00
19672;BME280;9983;51.114;13.788;2022-08-19T01:14:57;98554.09;;;23.28;100.00
19672;BME280;9983;51.114;13.788;2022-08-19T01:19:58;98554.94;;;23.18;100.00
19672;BME280;9983;51.114;13.788;2022-08-19T01:24:59;98560.47;;;23.08;100.00
19672;BME280;9983;51.114;13.788;2022-08-19T01:29:59;98576.56;;;23.20;100.00
19672;BME280;9983;51.114;13.788;2022-08-19T01:35:00;98588.41;;;22.90;100.00
19672;BME280;9983;51.114;13.788;2022-08-19T01:40:02;98584.94;;;23.43;100.00
19672;BME280;9983;51.114;13.788;2022-08-19T01:45:03;98582.50;;;23.42;100.00
19672;BME280;9983;51.114;13.788;2022-08-19T01:50:06;98576.22;;;23.52;100.00
19672;BME280;9983;51.114;13.788;2022-08-19T01:55:09;98574.88;;;23.34;100.00
19672;BME280;9983;51.114;13.788;2022-08-19T02:00:14;98587.16;;;23.41;100.00
19672;BME280;9983;51.114;13.788;2022-08-19T02:05:15;98588.84;;;23.32;100.00
19672;BME280;9983;51.114;13.788;2022-08-19T02:10:20;98588.22;;;23.56;100.00
19672;BME280;9983;51.114;13.788;2022-08-19T02:15:21;98564.19;;;23.37;100.00
19672;BME280;9983;51.114;13.788;2022-08-19T02:20:21;98537.41;;;23.34;100.00
19672;BME280;9983;51.114;13.788;2022-08-19T02:25:22;98570.16;;;23.55;100.00
19672;BME280;9983;51.114;13.788;2022-08-19T02:30:23;98581.59;;;23.62;100.00
19672;BME280;9983;51.114;13.788;2022-08-19T02:35:25;98577.31;;;23.35;100.00
19672;BME280;9983;51.114;13.788;2022-08-19T02:40:26;98578.91;;;23.57;100.00
19672;BME280;9983;51.114;13.788;2022-08-19T02:45:27;98561.31;;;23.73;100.00
19672;BME280;9983;51.114;13.788;2022-08-19T02:50:27;98565.66;;;23.79;100.00
19672;BME280;9983;51.114;13.788;2022-08-19T02:55:27;98571.75;;;23.66;100.00
19672;BME280;9983;51.114;13.788;2022-08-19T03:00:28;98581.94;;;23.55;100.00
19672;BME280;9983;51.114;13.788;2022-08-19T03:05:28;98590.88;;;23.71;100.00
19672;BME280;9983;51.114;13.788;2022-08-19T03:10:28;98592.56;;;23.67;100.00
19672;BME280;9983;51.114;13.788;2022-08-19T03:15:29;98585.41;;;23.71;100.00
19672;BME280;9983;51.114;13.788;2022-08-19T03:20:30;98568.53;;;23.54;100.00
19672;BME280;9983;51.114;13.788;2022-08-19T03:25:30;98570.44;;;23.48;100.00
19672;BME280;9983;51.114;13.788;2022-08-19T03:30:30;98581.06;;;23.65;100.00
19672;BME280;9983;51.114;13.788;2022-08-19T03:35:31;98603.00;;;23.44;100.00
19672;BME280;9983;51.114;13.788;2022-08-19T03:40:32;98590.69;;;23.47;100.00
19672;BME280;9983;51.114;13.788;2022-08-19T03:45:34;98594.78;;;23.60;100.00
19672;BME280;9983;51.114;13.788;2022-08-19T03:50:39;98598.63;;;23.43;100.00
19672;BME280;9983;51.114;13.788;2022-08-19T03:55:40;98594.28;;;23.42;100.00
19672;BME280;9983;51.114;13.788;2022-08-19T04:00:44;98601.59;;;23.62;100.00
19672;BME280;9983;51.114;13.788;2022-08-19T04:05:45;98607.28;;;23.76;100.00
19672;BME280;9983;51.114;13.788;2022-08-19T04:10:47;98606.16;;;23.77;100.00
19672;BME280;9983;51.114;13.788;2022-08-19T04:15:47;98605.38;;;23.76;100.00
19672;BME280;9983;51.114;13.788;2022-08-19T04:20:47;98604.13;;;23.49;100.00
19672;BME280;9983;51.114;13.788;2022-08-19T04:25:49;98596.13;;;23.62;100.00
19672;BME280;9983;51.114;13.788;2022-08-19T04:30:51;98598.09;;;23.41;100.00
19672;BME280;9983;51.114;13.788;2022-08-19T04:35:52;98599.72;;;23.53;100.00
19672;BME280;9983;51.114;13.788;2022-08-19T04:40:52;98610.63;;;23.63;100.00
19672;BME280;9983;51.114;13.788;2022-08-19T04:46:12;98598.66;;;23.49;100.00
19672;BME280;9983;51.114;13.788;2022-08-19T04:51:12;98609.06;;;23.31;100.00
19672;BME280;9983;51.114;13.788;2022-08-19T04:56:15;98612.28;;;23.54;100.00
19672;BME280;9983;51.114;13.788;2022-08-19T05:01:22;98608.72;;;23.58;100.00
19672;BME280;9983;51.114;13.788;2022-08-19T05:06:23;98599.66;;;23.63;100.00
19672;BME280;9983;51.114;13.788;2022-08-19T05:11:27;98597.44;;;23.75;100.00
19672;BME280;9983;51.114;13.788;2022-08-19T05:16:28;98609.19;;;23.75;100.00
19672;BME280;9983;51.114;13.788;2022-08-19T05:21:29;98632.00;;;23.45;100.00
19672;BME280;9983;51.114;13.788;2022-08-19T05:26:50;98646.81;;;23.34;100.00
19672;BME280;9983;51.114;13.788;2022-08-19T05:31:51;98654.75;;;23.31;100.00
19672;BME280;9983;51.114;13.788;2022-08-19T05:36:56;98657.16;;;23.48;100.00
19672;BME280;9983;51.114;13.788;2022-08-19T05:42:00;98674.16;;;22.43;100.00
19672;BME280;9983;51.114;13.788;2022-08-19T05:47:03;98686.78;;;22.75;100.00
19672;BME280;9983;51.114;13.788;2022-08-19T05:52:06;98697.13;;;23.18;100.00
19672;BME280;9983;51.114;13.788;2022-08-19T05:57:09;98711.91;;;22.66;100.00
19672;BME280;9983;51.114;13.788;2022-08-19T06:02:09;98702.59;;;22.73;100.00
19672;BME280;9983;51.114;13.788;2022-08-19T06:07:10;98714.06;;;22.54;100.00
19672;BME280;9983;51.114;13.788;2022-08-19T06:12:10;98724.13;;;22.44;100.00
19672;BME280;9983;51.114;13.788;2022-08-19T06:17:10;98748.56;;;22.76;100.00
19672;BME280;9983;51.114;13.788;2022-08-19T06:22:11;98761.56;;;22.53;100.00
19672;BME280;9983;51.114;13.788;2022-08-19T06:27:14;98774.09;;;22.34;100.00
19672;BME280;9983;51.114;13.788;2022-08-19T06:32:16;98774.66;;;22.46;100.00
19672;BME280;9983;51.114;13.788;2022-08-19T06:37:18;98789.75;;;21.96;100.00
19672;BME280;9983;51.114;13.788;2022-08-19T06:42:18;98799.28;;;22.56;100.00
19672;BME280;9983;51.114;13.788;2022-08-19T06:47:20;98785.59;;;22.51;100.00
19672;BME280;9983;51.114;13.788;2022-08-19T06:52:21;98784.06;;;22.76;100.00
19672;BME280;9983;51.114;13.788;2022-08-19T06:57:24;98806.72;;;22.04;100.00
19672;BME280;9983;51.114;13.788;2022-08-19T07:02:24;98816.81;;;22.65;100.00
19672;BME280;9983;51.114;13.788;2022-08-19T07:07:26;98823.47;;;22.22;100.00
19672;BME280;9983;51.114;13.788;2022-08-19T07:12:28;98825.50;;;22.52;100.00
19672;BME280;9983;51.114;13.788;2022-08-19T07:17:29;98802.00;;;22.51;100.00
19672;BME280;9983;51.114;13.788;2022-08-19T07:22:29;98796.53;;;22.51;100.00
19672;BME280;9983;51.114;13.788;2022-08-19T07:27:30;98802.66;;;22.79;100.00
19672;BME280;9983;51.114;13.788;2022-08-19T07:32:31;98817.59;;;22.61;100.00
19672;BME280;9983;51.114;13.788;2022-08-19T07:37:31;98833.81;;;22.20;100.00
19672;BME280;9983;51.114;13.788;2022-08-19T07:42:31;98826.03;;;22.49;100.00
19672;BME280;9983;51.114;13.788;2022-08-19T07:47:32;98837.03;;;22.69;100.00
19672;BME280;9983;51.114;13.788;2022-08-19T07:52:32;98835.84;;;22.40;100.00
19672;BME280;9983;51.114;13.788;2022-08-19T07:57:33;98827.59;;;22.25;100.00
19672;BME280;9983;51.114;13.788;2022-08-19T08:02:33;98824.84;;;22.25;100.00
19672;BME280;9983;51.114;13.788;2022-08-19T08:07:33;98842.13;;;22.41;100.00
19672;BME280;9983;51.114;13.788;2022-08-19T08:12:52;98855.00;;;22.50;100.00
19672;BME280;9983;51.114;13.788;2022-08-19T08:17:52;98847.41;;;22.73;100.00
19672;BME280;9983;51.114;13.788;2022-08-19T08:22:52;98847.31;;;22.42;100.00
19672;BME280;9983;51.114;13.788;2022-08-19T08:28:11;98856.31;;;22.38;100.00
19672;BME280;9983;51.114;13.788;2022-08-19T08:33:11;98857.22;;;22.68;100.00
19672;BME280;9983;51.114;13.788;2022-08-19T08:38:12;98868.09;;;22.48;100.00
19672;BME280;9983;51.114;13.788;2022-08-19T08:43:27;98866.34;;;22.84;100.00
19672;BME280;9983;51.114;13.788;2022-08-19T08:48:47;98890.31;;;22.72;100.00
19672;BME280;9983;51.114;13.788;2022-08-19T08:53:50;98869.38;;;23.03;100.00
19672;BME280;9983;51.114;13.788;2022-08-19T08:58:58;98875.41;;;23.10;100.00
19672;BME280;9983;51.114;13.788;2022-08-19T09:03:59;98886.91;;;23.07;100.00
19672;BME280;9983;51.114;13.788;2022-08-19T09:14:36;98893.31;;;22.70;100.00
19672;BME280;9983;51.114;13.788;2022-08-19T09:19:56;98876.50;;;23.04;100.00
19672;BME280;9983;51.114;13.788;2022-08-19T09:24:56;98888.91;;;23.62;100.00
19672;BME280;9983;51.114;13.788;2022-08-19T09:29:57;98858.50;;;23.33;100.00
19672;BME280;9983;51.114;13.788;2022-08-19T09:34:57;98863.97;;;23.69;100.00
19672;BME280;9983;51.114;13.788;2022-08-19T09:39:58;98857.94;;;23.77;100.00
19672;BME280;9983;51.114;13.788;2022-08-19T09:44:58;98851.94;;;23.39;100.00
19672;BME280;9983;51.114;13.788;2022-08-19T09:49:58;98847.56;;;23.33;100.00
19672;BME280;9983;51.114;13.788;2022-08-19T09:54:58;98853.59;;;23.66;100.00
19672;BME280;9983;51.114;13.788;2022-08-19T09:59:59;98852.44;;;24.07;100.00
19672;BME280;9983;51.114;13.788;2022-08-19T10:05:00;98869.41;;;24.09;100.00
19672;BME280;9983;51.114;13.788;2022-08-19T10:10:18;98871.34;;;24.09;100.00
19672;BME280;9983;51.114;13.788;2022-08-19T10:15:18;98865.03;;;24.18;100.00
19672;BME280;9983;51.114;13.788;2022-08-19T10:20:21;98863.09;;;24.24;100.00
19672;BME280;9983;51.114;13.788;2022-08-19T10:25:22;98861.19;;;24.25;100.00
19672;BME280;9983;51.114;13.788;2022-08-19T10:30:22;98880.41;;;23.54;100.00
19672;BME280;9983;51.114;13.788;2022-08-19T10:35:23;98886.91;;;24.34;100.00
19672;BME280;9983;51.114;13.788;2022-08-19T10:40:26;98895.41;;;24.27;100.00
19672;BME280;9983;51.114;13.788;2022-08-19T10:45:27;98885.84;;;24.89;100.00
19672;BME280;9983;51.114;13.788;2022-08-19T10:50:27;98893.13;;;25.19;100.00
19672;BME280;9983;51.114;13.788;2022-08-19T10:55:46;98887.66;;;25.14;99.57
19672;BME280;9983;51.114;13.788;2022-08-19T11:01:04;98899.44;;;25.14;96.09
19672;BME280;9983;51.114;13.788;2022-08-19T11:06:06;98896.28;;;25.36;95.53
19672;BME280;9983;51.114;13.788;2022-08-19T11:11:08;98908.66;;;24.84;97.83
19672;BME280;9983;51.114;13.788;2022-08-19T11:16:12;98923.56;;;24.48;100.00
19672;BME280;9983;51.114;13.788;2022-08-19T11:26:18;98920.13;;;24.86;98.65
19672;BME280;9983;51.114;13.788;2022-08-19T11:31:22;98936.69;;;24.66;99.16
19672;BME280;9983;51.114;13.788;2022-08-19T11:36:22;98930.47;;;25.10;95.00
19672;BME280;9983;51.114;13.788;2022-08-19T11:41:24;98942.13;;;24.76;97.27
19672;BME280;9983;51.114;13.788;2022-08-19T11:46:26;98935.28;;;24.74;98.32
19672;BME280;9983;51.114;13.788;2022-08-19T11:51:29;98939.91;;;24.78;98.04
19672;BME280;9983;51.114;13.788;2022-08-19T11:56:30;98927.34;;;24.62;99.63
19672;BME280;9983;51.114;13.788;2022-08-19T12:01:30;98948.75;;;24.60;98.99
19672;BME280;9983;51.114;13.788;2022-08-19T12:06:32;98945.94;;;24.85;96.77
19672;BME280;9983;51.114;13.788;2022-08-19T12:11:34;98950.94;;;24.68;99.10
19672;BME280;9983;51.114;13.788;2022-08-19T12:16:34;98938.72;;;24.25;100.00
19672;BME280;9983;51.114;13.788;2022-08-19T12:21:35;98959.22;;;24.43;100.00
19672;BME280;9983;51.114;13.788;2022-08-19T12:26:35;98960.59;;;23.95;100.00
19672;BME280;9983;51.114;13.788;2022-08-19T12:31:36;98970.19;;;24.23;100.00
19672;BME280;9983;51.114;13.788;2022-08-19T12:36:36;98956.03;;;25.00;99.01
19672;BME280;9983;51.114;13.788;2022-08-19T12:41:36;98967.91;;;24.75;98.54
19672;BME280;9983;51.114;13.788;2022-08-19T12:46:37;98955.69;;;25.17;95.17
19672;BME280;9983;51.114;13.788;2022-08-19T12:51:37;98962.13;;;25.36;93.50
19672;BME280;9983;51.114;13.788;2022-08-19T12:56:37;98961.78;;;24.99;94.13
19672;BME280;9983;51.114;13.788;2022-08-19T13:01:38;98960.25;;;24.67;95.36
19672;BME280;9983;51.114;13.788;2022-08-19T13:06:38;98956.41;;;24.68;96.32
19672;BME280;9983;51.114;13.788;2022-08-19T13:11:38;98959.16;;;24.63;94.71
19672;BME280;9983;51.114;13.788;2022-08-19T13:16:39;98961.41;;;24.41;96.69
19672;BME280;9983;51.114;13.788;2022-08-19T13:21:40;98963.59;;;24.29;97.39
19672;BME280;9983;51.114;13.788;2022-08-19T13:26:40;98958.69;;;24.05;98.57
19672;BME280;9983;51.114;13.788;2022-08-19T13:31:41;98960.88;;;23.88;99.29
19672;BME280;9983;51.114;13.788;2022-08-19T13:37:01;98958.66;;;24.10;98.70
19672;BME280;9983;51.114;13.788;2022-08-19T13:42:05;98955.91;;;24.51;95.28
19672;BME280;9983;51.114;13.788;2022-08-19T13:47:07;98955.09;;;24.50;95.72
19672;BME280;9983;51.114;13.788;2022-08-19T13:52:08;98963.03;;;24.52;95.46
19672;BME280;9983;51.114;13.788;2022-08-19T13:57:08;98952.63;;;24.39;96.03
19672;BME280;9983;51.114;13.788;2022-08-19T14:02:08;98959.50;;;24.16;97.30
19672;BME280;9983;51.114;13.788;2022-08-19T14:07:08;98953.75;;;24.02;99.14
19672;BME280;9983;51.114;13.788;2022-08-19T14:12:10;98957.03;;;24.35;97.05
19672;BME280;9983;51.114;13.788;2022-08-19T14:17:10;98964.44;;;24.24;97.27
19672;BME280;9983;51.114;13.788;2022-08-19T14:22:10;98960.88;;;24.34;96.92
19672;BME280;9983;51.114;13.788;2022-08-19T14:27:11;98959.78;;;24.25;97.60
19672;BME280;9983;51.114;13.788;2022-08-19T14:32:11;98961.16;;;24.27;97.33
19672;BME280;9983;51.114;13.788;2022-08-19T14:37:13;98975.66;;;24.12;98.42
19672;BME280;9983;51.114;13.788;2022-08-19T14:42:16;98974.28;;;24.05;98.35
19672;BME280;9983;51.114;13.788;2022-08-19T14:47:16;98981.69;;;24.04;98.95
19672;BME280;9983;51.114;13.788;2022-08-19T14:52:17;98984.44;;;24.30;97.29
19672;BME280;9983;51.114;13.788;2022-08-19T14:57:17;98988.28;;;23.93;99.58
19672;BME280;9983;51.114;13.788;2022-08-19T15:02:17;98988.81;;;24.00;98.30
19672;BME280;9983;51.114;13.788;2022-08-19T15:07:17;98971.81;;;24.03;97.56
19672;BME280;9983;51.114;13.788;2022-08-19T15:12:18;98952.13;;;23.91;98.06
19672;BME280;9983;51.114;13.788;2022-08-19T15:17:18;98957.03;;;24.14;95.99
19672;BME280;9983;51.114;13.788;2022-08-19T15:22:18;98963.63;;;24.34;95.42
19672;BME280;9983;51.114;13.788;2022-08-19T15:27:19;98966.91;;;24.31;96.37
19672;BME280;9983;51.114;13.788;2022-08-19T15:32:19;98968.00;;;24.35;96.50
19672;BME280;9983;51.114;13.788;2022-08-19T15:37:20;98977.31;;;24.29;96.27
19672;BME280;9983;51.114;13.788;2022-08-19T15:42:24;98966.38;;;23.83;99.33
19672;BME280;9983;51.114;13.788;2022-08-19T15:47:28;98956.50;;;24.28;96.71
19672;BME280;9983;51.114;13.788;2022-08-19T15:52:28;98951.03;;;24.07;97.92
19672;BME280;9983;51.114;13.788;2022-08-19T15:57:29;98949.91;;;24.03;98.19
19672;BME280;9983;51.114;13.788;2022-08-19T16:02:29;98950.75;;;24.29;96.76
19672;BME280;9983;51.114;13.788;2022-08-19T16:07:48;98944.47;;;24.24;96.67
19672;BME280;9983;51.114;13.788;2022-08-19T16:12:49;98932.38;;;24.14;97.02
19672;BME280;9983;51.114;13.788;2022-08-19T16:17:50;98943.34;;;24.04;98.21
19672;BME280;9983;51.114;13.788;2022-08-19T16:22:50;98951.59;;;23.84;98.80
19672;BME280;9983;51.114;13.788;2022-08-19T16:27:51;98953.22;;;23.75;98.74
19672;BME280;9983;51.114;13.788;2022-08-19T16:32:53;98943.91;;;23.66;99.90
19672;BME280;9983;51.114;13.788;2022-08-19T16:37:53;98945.53;;;24.02;97.32
19672;BME280;9983;51.114;13.788;2022-08-19T16:42:53;98950.19;;;24.07;97.04
19672;BME280;9983;51.114;13.788;2022-08-19T16:47:54;98943.34;;;24.09;95.95
19672;BME280;9983;51.114;13.788;2022-08-19T16:52:57;98922.00;;;24.06;95.86
19672;BME280;9983;51.114;13.788;2022-08-19T16:57:57;98931.84;;;24.02;96.22
19672;BME280;9983;51.114;13.788;2022-08-19T17:03:05;98943.91;;;23.96;96.56
19672;BME280;9983;51.114;13.788;2022-08-19T17:08:06;98935.69;;;23.66;98.65
19672;BME280;9983;51.114;13.788;2022-08-19T17:13:06;98940.06;;;23.97;96.52
19672;BME280;9983;51.114;13.788;2022-08-19T17:18:08;98937.34;;;23.92;96.60
19672;BME280;9983;51.114;13.788;2022-08-19T17:23:09;98949.38;;;24.06;95.79
19672;BME280;9983;51.114;13.788;2022-08-19T17:28:26;98946.66;;;24.27;94.28
19672;BME280;9983;51.114;13.788;2022-08-19T17:33:27;98959.22;;;24.12;94.36
19672;BME280;9983;51.114;13.788;2022-08-19T17:38:27;98953.22;;;24.00;95.81
19672;BME280;9983;51.114;13.788;2022-08-19T17:43:28;98942.78;;;24.12;94.85
19672;BME280;9983;51.114;13.788;2022-08-19T17:48:32;98934.03;;;24.20;94.58
19672;BME280;9983;51.114;13.788;2022-08-19T17:53:37;98940.63;;;23.74;97.60
19672;BME280;9983;51.114;13.788;2022-08-19T17:58:41;98971.56;;;23.90;96.49
19672;BME280;9983;51.114;13.788;2022-08-19T18:03:42;98994.28;;;24.00;96.02
19672;BME280;9983;51.114;13.788;2022-08-19T18:08:43;98996.22;;;24.25;93.99
19672;BME280;9983;51.114;13.788;2022-08-19T18:13:48;99007.44;;;23.98;95.63
19672;BME280;9983;51.114;13.788;2022-08-19T18:18:48;99024.97;;;24.33;94.53
19672;BME280;9983;51.114;13.788;2022-08-19T18:23:48;99044.16;;;24.28;94.12
19672;BME280;9983;51.114;13.788;2022-08-19T18:28:48;99074.28;;;24.23;93.99
19672;BME280;9983;51.114;13.788;2022-08-19T18:33:50;99065.53;;;24.41;92.56
19672;BME280;9983;51.114;13.788;2022-08-19T18:38:53;99068.81;;;24.33;92.86
19672;BME280;9983;51.114;13.788;2022-08-19T18:44:12;99059.44;;;23.83;96.34
19672;BME280;9983;51.114;13.788;2022-08-19T18:49:32;99052.91;;;24.09;94.96
19672;BME280;9983;51.114;13.788;2022-08-19T18:54:32;99050.94;;;23.95;95.73
19672;BME280;9983;51.114;13.788;2022-08-19T18:59:34;99053.91;;;23.63;97.70
19672;BME280;9983;51.114;13.788;2022-08-19T19:04:36;99040.22;;;23.58;100.00
19672;BME280;9983;51.114;13.788;2022-08-19T19:09:37;99045.72;;;23.68;99.35
19672;BME280;9983;51.114;13.788;2022-08-19T19:14:39;99046.81;;;23.72;98.94
19672;BME280;9983;51.114;13.788;2022-08-19T19:19:41;99036.41;;;23.59;99.51
19672;BME280;9983;51.114;13.788;2022-08-19T19:24:41;99043.53;;;23.60;98.33
19672;BME280;9983;51.114;13.788;2022-08-19T19:29:48;99028.22;;;23.74;97.73
19672;BME280;9983;51.114;13.788;2022-08-19T19:34:48;99035.88;;;23.72;97.59
19672;BME280;9983;51.114;13.788;2022-08-19T19:39:49;99034.19;;;23.61;98.57
19672;BME280;9983;51.114;13.788;2022-08-19T19:44:51;99036.38;;;23.49;100.00
19672;BME280;9983;51.114;13.788;2022-08-19T19:49:51;99059.16;;;23.12;100.00
19672;BME280;9983;51.114;13.788;2022-08-19T19:54:54;99048.78;;;23.09;100.00
19672;BME280;9983;51.114;13.788;2022-08-19T19:59:55;99030.75;;;23.18;100.00
19672;BME280;9983;51.114;13.788;2022-08-19T20:04:56;99029.22;;;23.42;100.00
19672;BME280;9983;51.114;13.788;2022-08-19T20:09:57;99031.88;;;23.22;100.00
19672;BME280;9983;51.114;13.788;2022-08-19T20:14:58;99043.94;;;23.26;100.00
19672;BME280;9983;51.114;13.788;2022-08-19T20:19:58;99049.34;;;23.16;100.00
19672;BME280;9983;51.114;13.788;2022-08-19T20:24:58;99069.00;;;23.08;100.00
19672;BME280;9983;51.114;13.788;2022-08-19T20:30:00;99088.22;;;23.23;100.00
19672;BME280;9983;51.114;13.788;2022-08-19T20:35:04;99078.38;;;23.27;100.00
19672;BME280;9983;51.114;13.788;2022-08-19T20:40:07;99065.81;;;23.31;100.00
19672;BME280;9983;51.114;13.788;2022-08-19T20:45:14;99069.13;;;23.43;100.00
19672;BME280;9983;51.114;13.788;2022-08-19T20:50:16;99061.47;;;23.40;100.00
19672;BME280;9983;51.114;13.788;2022-08-19T20:55:16;99066.94;;;23.45;100.00
19672;BME280;9983;51.114;13.788;2022-08-19T21:00:16;99075.00;;;23.05;100.00
19672;BME280;9983;51.114;13.788;2022-08-19T21:05:17;99065.78;;;23.21;100.00
19672;BME280;9983;51.114;13.788;2022-08-19T21:10:17;99051.88;;;23.38;100.00
19672;BME280;9983;51.114;13.788;2022-08-19T21:15:18;99056.53;;;23.32;100.00
19672;BME280;9983;51.114;13.788;2022-08-19T21:20:18;99064.69;;;23.22;100.00
19672;BME280;9983;51.114;13.788;2022-08-19T21:25:18;99051.06;;;23.37;100.00
19672;BME280;9983;51.114;13.788;2022-08-19T21:30:19;99064.69;;;23.22;100.00
19672;BME280;9983;51.114;13.788;2022-08-19T21:35:20;99067.47;;;23.37;100.00
19672;BME280;9983;51.114;13.788;2022-08-19T21:40:23;99057.09;;;23.44;100.00
19672;BME280;9983;51.114;13.788;2022-08-19T21:45:23;99058.81;;;23.51;100.00
19672;BME280;9983;51.114;13.788;2022-08-19T21:50:24;99062.38;;;23.51;100.00
19672;BME280;9983;51.114;13.788;2022-08-19T21:55:25;99064.22;;;23.45;100.00
19672;BME280;9983;51.114;13.788;2022-08-19T22:00:28;99039.59;;;23.40;100.00
19672;BME280;9983;51.114;13.788;2022-08-19T22:05:29;99045.22;;;23.08;100.00
19672;BME280;9983;51.114;13.788;2022-08-19T22:10:32;99037.63;;;23.26;100.00
19672;BME280;9983;51.114;13.788;2022-08-19T22:15:32;99047.91;;;22.98;100.00
19672;BME280;9983;51.114;13.788;2022-08-19T22:20:33;99062.47;;;23.14;100.00
19672;BME280;9983;51.114;13.788;2022-08-19T22:25:35;99060.88;;;23.23;100.00
19672;BME280;9983;51.114;13.788;2022-08-19T22:30:38;99065.75;;;23.16;100.00
19672;BME280;9983;51.114;13.788;2022-08-19T22:35:40;99057.63;;;23.31;100.00
19672;BME280;9983;51.114;13.788;2022-08-19T22:40:47;99055.34;;;23.13;100.00
19672;BME280;9983;51.114;13.788;2022-08-19T22:45:49;99074.22;;;23.10;100.00
19672;BME280;9983;51.114;13.788;2022-08-19T22:50:51;99069.00;;;23.08;100.00
19672;BME280;9983;51.114;13.788;2022-08-19T22:56:11;99077.28;;;23.23;100.00
19672;BME280;9983;51.114;13.788;2022-08-19T23:01:13;99089.34;;;23.37;100.00
19672;BME280;9983;51.114;13.788;2022-08-19T23:06:13;99073.50;;;23.34;100.00
19672;BME280;9983;51.114;13.788;2022-08-19T23:11:14;99069.63;;;23.25;100.00
19672;BME280;9983;51.114;13.788;2022-08-19T23:16:14;99073.41;;;23.14;100.00
19672;BME280;9983;51.114;13.788;2022-08-19T23:21:14;99061.44;;;23.30;100.00
19672;BME280;9983;51.114;13.788;2022-08-19T23:26:15;99059.16;;;23.12;100.00
19672;BME280;9983;51.114;13.788;2022-08-19T23:31:15;99040.28;;;23.11;100.00
19672;BME280;9983;51.114;13.788;2022-08-19T23:36:16;99045.22;;;22.66;100.00
19672;BME280;9983;51.114;13.788;2022-08-19T23:41:19;99039.31;;;22.80;100.00
19672;BME280;9983;51.114;13.788;2022-08-19T23:46:19;99045.81;;;22.74;100.00
19672;BME280;9983;51.114;13.788;2022-08-19T23:51:20;99046.94;;;22.78;100.00
19672;BME280;9983;51.114;13.788;2022-08-19T23:56:21;99044.50;;;22.76;100.00
